Monday, December 18, 2017, 11:25 AM EST
Back to Local

KRME, Griffiss Airfield

Location: Rome, NY, United States Lat: 43.233
Local Time: 11:25 AM EST (16:25 GMT) Lon: -75.4
Time Zone: US/Eastern Elev: 505 ft

Show me the last for .
Show Decoded

2017-12-18 11:12 METAR KRME 181612Z 12006KT 1 3/4SM -SN BR OVC021 M03/M04 A3000 RMK AO2 P0001
                 T10281044 =
2017-12-18 10:53 METAR KRME 181553Z 12007KT 2 1/2SM -SN BR BKN021 OVC033 M03/M05 A3000 RMK AO2
                 SLP166 P0000 T10331050 =
2017-12-18 10:51 METAR KRME 181551Z 11008KT 2SM -SN BR BKN023 OVC033 M03/M06 A3001 RMK AO2 P0000
                 =
2017-12-18 09:53 METAR KRME 181453Z 12007KT 6SM -SN BR OVC021 M04/M06 A3003 RMK AO2
                 UPB50E52SNE1355B14E50B52 SLP177 P0000 60000 T10391061 58008 =
2017-12-18 08:53 METAR KRME 181353Z 12008KT 8SM -SN OVC022 M04/M07 A3004 RMK AO2 SNB36 SLP179
                 P0000 T10441067 =
2017-12-18 07:53 METAR KRME 181253Z 12003KT 9SM OVC022 M05/M07 A3006 RMK AO2 SNE04B21E48 SLP185
                 P0000 T10501072 $ =
2017-12-18 06:53 METAR KRME 181153Z 12007KT 6SM -SN BR OVC023 M05/M07 A3006 RMK AO2 SNB21 SLP185
                 P0000 60001 70001 T10501072 11050 21067 56011 $ =
2017-12-18 05:53 METAR KRME 181053Z AUTO 12006KT 10SM OVC027 M06/M08 A3007 RMK AO2 SLP189
                 T10561078 $ =
2017-12-18 05:30 METAR KRME 181030Z AUTO 11003KT 10SM BKN028 OVC085 M06/M08 A3007 RMK AO2
                 T10561078 $ =
2017-12-18 04:53 METAR KRME 180953Z AUTO 12008KT 10SM SCT075 BKN090 M06/M08 A3006 RMK AO2 SLP186
                 T10611083 $ =
2017-12-18 03:53 METAR KRME 180853Z AUTO 10007KT 10SM BKN120 M06/M08 A3009 RMK AO2 SLP196 60001
                 T10561078 56018 $ =
2017-12-18 02:53 METAR KRME 180753Z AUTO 10008KT 10SM BKN060 OVC085 M06/M08 A3010 RMK AO2 SNE21
                 SLP200 P0000 T10611078 $ =
2017-12-18 02:00 METAR KRME 180700Z AUTO 11008KT 3SM -SN BR FEW025 BKN032 OVC045 M07/M08 A3013
                 RMK AO2 P0000 T10671078 $ =
2017-12-18 01:53 METAR KRME 180653Z AUTO 10006KT 2 1/2SM -SN BR SCT025 OVC032 M07/M08 A3013 RMK
                 AO2 SLP209 P0001 T10671078 $ =
2017-12-18 01:48 METAR KRME 180648Z AUTO 10007KT 2SM -SN BR FEW017 SCT025 OVC032 M07/M08 A3013
                 RMK AO2 P0001 $ =
2017-12-18 01:03 METAR KRME 180603Z AUTO 10005KT 1 3/4SM -SN BR BKN022 OVC029 M07/M09 A3015 RMK
                 AO2 P0000 T10671089 $ =
2017-12-18 00:53 METAR KRME 180553Z AUTO 10006KT 2 1/2SM -SN OVC030 M07/M09 A3014 RMK AO2 SNB06
                 SLP215 P0000 60000 T10671094 11061 21083 56021 $ =
2017-12-18 00:51 METAR KRME 180551Z AUTO 11007KT 2 1/2SM -SN OVC030 M07/M09 A3014 RMK AO2 SNB06
                 P0000 $ =
2017-12-17 23:53 METAR KRME 180453Z AUTO 10007KT 10SM OVC026 M06/M11 A3015 RMK AO2 SLP217
                 T10611106 410611206 $ =
2017-12-17 23:19 METAR KRME 180419Z AUTO 10007KT 10SM BKN026 OVC110 M07/M11 A3016 RMK AO2
                 T10671106 $ =
2017-12-17 22:53 METAR KRME 180353Z AUTO 10007KT 10SM FEW110 M07/M11 A3017 RMK AO2 SLP225
                 T10671106 $ =
2017-12-17 21:53 METAR KRME 180253Z AUTO 09007KT 10SM CLR M07/M11 A3021 RMK AO2 SLP238 T10721106
                 58017 $ =
2017-12-17 20:53 METAR KRME 180153Z 10005KT 10SM CLR M07/M11 A3023 RMK AO2 SLP245 T10721106 $ =
2017-12-17 19:53 METAR KRME 180053Z 07005KT 10SM CLR M08/M11 A3024 RMK AO2 SLP250 T10781106 $ =
2017-12-17 18:53 METAR KRME 172353Z 06004KT 10SM CLR M08/M11 A3026 RMK AO2 SLP256 T10831106 11067
                 21094 53000 $ =
2017-12-17 17:53 METAR KRME 172253Z 00000KT 10SM CLR M08/M11 A3025 RMK AO2 SLP252 T10781106 $ =
2017-12-17 16:53 METAR KRME 172153Z 00000KT 10SM CLR M08/M11 A3025 RMK AO2 SLP252 T10781111 $ =
2017-12-17 15:53 METAR KRME 172053Z 00000KT 10SM CLR M07/M12 A3026 RMK AO2 SLP255 T10721117 58010
                 $ =
2017-12-17 14:53 METAR KRME 171953Z 00000KT 10SM CLR M07/M11 A3027 RMK AO2 SLP262 T10721111 $ =
2017-12-17 13:53 METAR KRME 171853Z 00000KT 10SM CLR M08/M13 A3027 RMK AO2 SLP261 T10781128 $ =
2017-12-17 12:53 METAR KRME 171753Z 00000KT 10SM CLR M09/M13 A3029 RMK AO2 SLP266 60000 T10891128
                 11083 21200 58020 $ =
2017-12-17 11:53 METAR KRME 171653Z 00000KT 10SM CLR M10/M13 A3032 RMK AO2 SLP278 T11001128 $ =

Support USWX by starting your Amazon purchase here.